Time;durP1;ratioP1;P1;durP2;ratioP2;P2;SDS_P1;SDS_P2;PMS_P1;PMS_P2;Temp;Humidity;BMP_temperature;BMP_pressure;BME280_temperature;BME280_humidity;BME280_pressure;Samples;Min_cycle;Max_cycle;Signal;HPM_P1;HPM_P2
2023/11/14 00:08:08;;;;;;;8.20;1.80;;;;;;;17.97;100.00;101356.34;20952915;28;20041;-74
2023/11/14 00:18:33;;;;;;;7.07;2.30;;;;;;;17.94;100.00;101346.53;20917138;28;20068;-74
2023/11/14 00:28:56;;;;;;;7.43;2.03;;;;;;;17.85;100.00;101326.09;20923746;28;20056;-75
2023/11/14 00:39:21;;;;;;;6.03;1.60;;;;;;;17.80;100.00;101321.69;20925423;28;20053;-73
2023/11/14 00:49:43;;;;;;;9.60;2.08;;;;;;;17.73;100.00;101298.56;20908791;28;20060;-73
2023/11/14 01:00:11;;;;;;;9.50;2.00;;;;;;;17.72;100.00;101291.47;20934330;28;20049;-74
2023/11/14 01:10:34;;;;;;;5.95;1.60;;;;;;;17.60;100.00;101312.84;20912434;28;20094;-75
2023/11/14 01:20:59;;;;;;;6.13;1.75;;;;;;;17.65;100.00;101328.00;20961796;28;20506;-74
2023/11/14 01:31:22;;;;;;;5.47;2.03;;;;;;;17.62;100.00;101332.44;20924791;28;20048;-75
2023/11/14 01:41:47;;;;;;;5.85;1.60;;;;;;;17.59;100.00;101308.41;20898045;28;20076;-74
2023/11/14 01:52:12;;;;;;;9.52;1.60;;;;;;;17.58;100.00;101290.63;20914673;28;20129;-74
2023/11/14 02:02:36;;;;;;;7.35;1.63;;;;;;;17.61;100.00;101307.53;20924045;28;20052;-74
2023/11/14 02:12:59;;;;;;;5.80;1.55;;;;;;;17.57;100.00;101310.19;20918819;28;20094;-73
2023/11/14 02:23:27;;;;;;;6.13;1.70;;;;;;;17.54;100.00;101309.31;20919189;28;20037;-74
2023/11/14 02:33:51;;;;;;;7.13;2.00;;;;;;;17.61;100.00;101330.66;20936133;28;20053;-74
2023/11/14 02:44:14;;;;;;;7.40;1.40;;;;;;;17.57;100.00;101329.78;20896238;28;20539;-73
2023/11/14 02:54:38;;;;;;;6.18;1.42;;;;;;;17.48;100.00;101330.69;20920017;28;20041;-74
2023/11/14 03:05:01;;;;;;;5.75;1.67;;;;;;;17.52;100.00;101347.59;20910539;28;20048;-74
2023/11/14 03:15:26;;;;;;;5.63;1.63;;;;;;;17.45;100.00;101353.84;20878983;28;20045;-74
2023/11/14 03:25:48;;;;;;;11.27;1.73;;;;;;;17.39;100.00;101352.06;20919147;28;20049;-74
2023/11/14 03:36:13;;;;;;;7.60;1.85;;;;;;;17.42;100.00;101359.19;20909955;28;20049;-74
2023/11/14 03:46:36;;;;;;;7.60;1.67;;;;;;;17.39;100.00;101365.41;20922168;28;20143;-74
2023/11/14 03:57:00;;;;;;;3.03;1.52;;;;;;;17.39;100.00;101360.06;20856273;28;20049;-74
2023/11/14 04:07:23;;;;;;;7.47;1.80;;;;;;;17.40;100.00;101380.53;20910230;28;20517;-74
2023/11/14 04:17:47;;;;;;;4.88;1.35;;;;;;;17.32;100.00;101382.38;20910981;28;20516;-74
2023/11/14 04:28:10;;;;;;;6.32;1.23;;;;;;;17.25;100.00;101393.94;20923363;28;20053;-74
2023/11/14 04:38:35;;;;;;;8.13;1.20;;;;;;;17.22;100.00;101417.94;20899874;28;20048;-74
2023/11/14 04:48:58;;;;;;;6.05;1.50;;;;;;;17.20;100.00;101435.72;20934189;28;20063;-74
2023/11/14 04:59:22;;;;;;;5.88;1.42;;;;;;;17.25;100.00;101451.75;20913803;28;20053;-73
2023/11/14 05:09:44;;;;;;;6.65;1.25;;;;;;;17.30;100.00;101457.97;20937052;28;20041;-73
2023/11/14 05:20:10;;;;;;;7.43;1.33;;;;;;;17.34;100.00;101476.63;20926266;28;20037;-74
2023/11/14 05:30:32;;;;;;;4.72;1.35;;;;;;;17.41;100.00;101486.44;20960869;28;20041;-73
2023/11/14 05:40:57;;;;;;;6.20;1.40;;;;;;;17.50;100.00;101491.78;20970788;28;20084;-73
2023/11/14 05:51:20;;;;;;;3.47;1.20;;;;;;;17.51;100.00;101504.22;20924116;28;20124;-73
2023/11/14 06:01:45;;;;;;;6.13;1.17;;;;;;;17.62;100.00;101516.69;20927338;28;20414;-73
2023/11/14 06:12:08;;;;;;;5.80;1.50;;;;;;;17.89;100.00;101524.69;20916748;28;20057;-73
2023/11/14 06:22:34;;;;;;;4.57;1.10;;;;;;;17.96;100.00;101510.41;20902415;28;20122;-73
2023/11/14 06:32:56;;;;;;;10.75;1.67;;;;;;;17.91;100.00;101541.59;20825032;28;20049;-72
2023/11/14 06:43:20;;;;;;;6.72;1.30;;;;;;;17.96;100.00;101560.28;20890239;28;20452;-74
2023/11/14 06:53:43;;;;;;;8.13;1.50;;;;;;;18.22;100.00;101578.03;20875085;28;20049;-74
2023/11/14 07:04:09;;;;;;;2.97;1.02;;;;;;;18.51;100.00;101569.91;20883162;28;20060;-74
2023/11/14 07:14:32;;;;;;;5.15;1.05;;;;;;;18.76;100.00;101552.00;20891220;28;20067;-74
2023/11/14 07:24:56;;;;;;;4.22;1.05;;;;;;;19.35;100.00;101554.31;20888522;28;20051;-74
2023/11/14 07:35:21;;;;;;;7.18;1.20;;;;;;;19.66;100.00;101557.63;20897915;28;20056;-73
2023/11/14 07:45:45;;;;;;;7.78;1.20;;;;;;;19.34;100.00;101565.00;20916233;28;20518;-74
2023/11/14 07:56:08;;;;;;;7.28;1.30;;;;;;;19.72;100.00;101557.56;20930583;28;20098;-74
2023/11/14 08:06:32;;;;;;;7.47;1.30;;;;;;;20.27;100.00;101552.53;20892504;28;20563;-74
2023/11/14 08:16:55;;;;;;;4.32;1.17;;;;;;;20.23;100.00;101566.88;20952733;28;20040;-74
2023/11/14 08:27:18;;;;;;;4.05;1.00;;;;;;;20.35;100.00;101589.16;20962873;28;20056;-74
2023/11/14 08:37:42;;;;;;;7.05;1.13;;;;;;;20.08;100.00;101598.34;20923755;28;20042;-74
2023/11/14 08:48:08;;;;;;;3.60;1.40;;;;;;;20.59;100.00;101564.72;20915520;28;20136;-74
2023/11/14 08:58:30;;;;;;;4.70;1.08;;;;;;;20.94;100.00;101569.56;20900237;28;20099;-74
2023/11/14 09:08:55;;;;;;;4.55;0.80;;;;;;;21.41;100.00;101550.09;20927774;28;20049;-74
2023/11/14 09:19:18;;;;;;;5.28;1.13;;;;;;;21.68;100.00;101552.31;20908324;28;20051;-74
2023/11/14 09:29:41;;;;;;;3.35;0.70;;;;;;;21.35;100.00;101536.75;20923458;28;20114;-73
2023/11/14 09:40:06;;;;;;;5.43;1.00;;;;;;;21.82;100.00;101527.88;20919925;28;20056;-75
2023/11/14 09:50:30;;;;;;;3.67;0.75;;;;;;;22.08;100.00;101524.72;20910821;28;20041;-75
2023/11/14 10:00:52;;;;;;;2.45;1.00;;;;;;;22.52;100.00;101513.03;20888574;28;20052;-74
2023/11/14 10:11:16;;;;;;;11.65;1.25;;;;;;;22.74;100.00;101483.88;20918152;28;20041;-79
2023/11/14 10:21:39;;;;;;;3.10;0.70;;;;;;;22.85;100.00;101488.09;20907667;28;20167;-79
2023/11/14 10:32:14;;;;;;;4.78;0.80;;;;;;;22.71;100.00;101495.56;20821554;28;20048;-77
2023/11/14 10:42:37;;;;;;;2.90;0.63;;;;;;;22.86;100.00;101470.13;20866935;28;20520;-78
2023/11/14 10:53:02;;;;;;;4.72;0.88;;;;;;;22.82;100.00;101422.66;20852299;28;20052;-80
2023/11/14 11:03:26;;;;;;;2.78;0.68;;;;;;;22.81;100.00;101400.25;20886548;28;20498;-79
2023/11/14 11:13:52;;;;;;;2.85;0.82;;;;;;;22.60;100.00;101395.34;20910729;28;20053;-77
2023/11/14 11:24:14;;;;;;;5.40;0.90;;;;;;;22.44;100.00;101397.53;20846738;28;20588;-78
2023/11/14 11:34:41;;;;;;;8.32;0.98;;;;;;;22.40;100.00;101376.06;20828367;28;20490;-77
2023/11/14 11:45:04;;;;;;;5.07;1.00;;;;;;;22.29;100.00;101362.88;20837805;28;20081;-77
2023/11/14 11:55:29;;;;;;;2.83;0.90;;;;;;;22.23;100.00;101360.34;20915782;28;20041;-78
2023/11/14 12:05:57;;;;;;;4.28;1.20;;;;;;;22.13;100.00;101356.06;20858630;28;20045;-77
2023/11/14 12:16:23;;;;;;;4.65;0.80;;;;;;;21.96;100.00;101352.88;20861765;28;20045;-76
2023/11/14 12:26:46;;;;;;;5.90;1.10;;;;;;;21.81;100.00;101365.69;20868260;28;20122;-77
2023/11/14 12:37:14;;;;;;;3.33;1.10;;;;;;;21.78;100.00;101357.72;20851153;28;20064;-75
2023/11/14 12:47:39;;;;;;;3.15;1.05;;;;;;;21.60;100.00;101311.50;20879777;28;20048;-75
2023/11/14 12:58:03;;;;;;;6.05;1.48;;;;;;;21.50;100.00;101313.50;20872575;28;20445;-77
2023/11/14 13:08:26;;;;;;;7.60;1.20;;;;;;;21.31;100.00;101341.66;20882730;28;20041;-77
2023/11/14 13:18:50;;;;;;;2.10;0.80;;;;;;;21.18;100.00;101315.94;20903909;28;20060;-77
2023/11/14 13:29:12;;;;;;;4.18;0.98;;;;;;;20.96;100.00;101318.97;20872095;28;20131;-77
2023/11/14 13:39:37;;;;;;;3.60;1.08;;;;;;;20.88;100.00;101328.06;20873063;28;20037;-76
2023/11/14 13:50:02;;;;;;;3.53;0.90;;;;;;;20.73;100.00;101326.56;20882612;28;20467;-76
2023/11/14 14:00:26;;;;;;;3.33;0.80;;;;;;;20.52;100.00;101317.06;20866437;28;20402;-76
2023/11/14 14:10:49;;;;;;;6.70;1.27;;;;;;;20.36;100.00;101341.47;20880336;28;20044;-77
2023/11/14 14:21:14;;;;;;;3.63;1.00;;;;;;;20.21;100.00;101381.00;20920379;28;20060;-77
2023/11/14 14:31:36;;;;;;;4.63;0.95;;;;;;;20.07;100.00;101353.50;20917717;28;20086;-77
2023/11/14 14:42:01;;;;;;;3.22;1.30;;;;;;;19.94;100.00;101359.94;20927454;28;20589;-77
2023/11/14 14:52:26;;;;;;;5.40;1.43;;;;;;;19.75;100.00;101350.34;20944306;28;20097;-76
2023/11/14 15:02:51;;;;;;;6.18;1.50;;;;;;;19.67;100.00;101352.22;20887290;28;20059;-77
2023/11/14 15:13:13;;;;;;;2.65;1.08;;;;;;;19.52;100.00;101355.09;20920301;28;20052;-77
2023/11/14 15:23:39;;;;;;;4.93;1.20;;;;;;;19.38;100.00;101329.31;20906969;28;20045;-77
2023/11/14 15:34:03;;;;;;;3.58;1.30;;;;;;;19.28;100.00;101369.59;20895078;28;20052;-76
2023/11/14 15:44:28;;;;;;;3.05;1.48;;;;;;;19.16;100.00;101385.81;20892679;28;20063;-76
2023/11/14 15:54:51;;;;;;;3.38;1.30;;;;;;;19.11;100.00;101384.03;20905963;28;20055;-77
2023/11/14 16:05:15;;;;;;;3.63;1.70;;;;;;;19.05;100.00;101370.72;20881983;28;20512;-77
2023/11/14 16:15:38;;;;;;;4.55;1.58;;;;;;;19.01;100.00;101403.78;20886046;28;20159;-77
2023/11/14 16:26:02;;;;;;;2.45;1.40;;;;;;;18.94;100.00;101385.09;20885410;28;20073;-77
2023/11/14 16:36:25;;;;;;;7.20;1.30;;;;;;;18.89;100.00;101379.78;20901926;28;20685;-73
2023/11/14 16:46:51;;;;;;;5.43;1.33;;;;;;;18.83;100.00;101382.53;20908525;28;20048;-74
2023/11/14 16:57:14;;;;;;;3.50;1.30;;;;;;;18.76;100.00;101396.84;20849926;28;20054;-72
2023/11/14 17:07:38;;;;;;;2.53;1.30;;;;;;;18.69;100.00;101406.72;20840039;28;20049;-73
2023/11/14 17:18:02;;;;;;;5.68;1.75;;;;;;;18.65;100.00;101412.06;20826549;28;20033;-74
2023/11/14 17:28:26;;;;;;;3.33;1.35;;;;;;;18.63;100.00;101420.13;20873738;28;20136;-74
2023/11/14 17:38:49;;;;;;;9.10;3.67;;;;;;;18.72;100.00;101411.13;20858256;28;20102;-74
2023/11/14 17:49:13;;;;;;;3.95;1.45;;;;;;;18.62;100.00;101414.78;20904298;28;20098;-72
2023/11/14 17:59:36;;;;;;;4.90;1.55;;;;;;;18.54;100.00;101414.78;20842894;28;20053;-72
2023/11/14 18:10:00;;;;;;;4.65;1.42;;;;;;;18.46;100.00;101416.63;20879728;28;20144;-72
2023/11/14 18:20:22;;;;;;;4.22;1.80;;;;;;;18.44;100.00;101425.56;20850214;28;20099;-72
2023/11/14 18:30:46;;;;;;;7.13;1.77;;;;;;;18.34;100.00;101427.41;20890354;28;20073;-73
2023/11/14 18:41:09;;;;;;;6.30;3.78;;;;;;;18.36;100.00;101455.03;20871676;28;20057;-72
2023/11/14 18:51:33;;;;;;;8.43;4.40;;;;;;;18.38;100.00;101447.00;20866135;28;20125;-73
2023/11/14 19:01:55;;;;;;;5.72;3.00;;;;;;;18.25;100.00;101463.06;20866501;28;20107;-73
2023/11/14 19:12:23;;;;;;;6.28;3.60;;;;;;;18.19;100.00;101449.75;20875780;28;20057;-72
2023/11/14 19:22:45;;;;;;;6.85;3.40;;;;;;;18.11;100.00;101440.91;20835827;28;20384;-72
2023/11/14 19:33:11;;;;;;;11.43;6.38;;;;;;;17.98;100.00;101430.25;20881394;28;20053;-72
2023/11/14 19:43:34;;;;;;;10.85;7.00;;;;;;;17.84;100.00;101436.53;20880844;28;20106;-72
2023/11/14 19:54:00;;;;;;;5.55;1.98;;;;;;;17.80;100.00;101424.06;20856896;28;20050;-72
2023/11/14 20:04:23;;;;;;;3.90;1.75;;;;;;;17.57;100.00;101420.56;20840195;28;20068;-73
2023/11/14 20:14:47;;;;;;;2.97;1.33;;;;;;;17.39;100.00;101423.28;20846488;28;20053;-71
2023/11/14 20:25:10;;;;;;;5.32;1.85;;;;;;;17.25;100.00;101427.75;20907389;28;20057;-71
2023/11/14 20:35:35;;;;;;;6.53;1.90;;;;;;;17.27;100.00;101416.16;20912110;28;20047;-72
2023/11/14 20:45:57;;;;;;;2.90;1.67;;;;;;;17.25;100.00;101406.38;20916262;28;20052;-72
2023/11/14 20:56:24;;;;;;;5.25;2.00;;;;;;;17.16;100.00;101395.72;20929109;28;20102;-71
2023/11/14 21:06:47;;;;;;;3.17;1.45;;;;;;;17.09;100.00;101398.38;20961844;28;20505;-73
2023/11/14 21:17:11;;;;;;;3.80;1.40;;;;;;;17.04;100.00;101394.84;20922850;28;20053;-72
2023/11/14 21:27:34;;;;;;;3.38;1.40;;;;;;;17.23;100.00;101408.16;20908316;28;20422;-73
2023/11/14 21:37:58;;;;;;;4.53;1.70;;;;;;;17.33;100.00;101407.25;20929776;28;20501;-73
2023/11/14 21:48:21;;;;;;;4.35;1.50;;;;;;;17.22;100.00;101404.59;20930524;28;20477;-73
2023/11/14 21:58:47;;;;;;;4.68;1.70;;;;;;;16.98;100.00;101386.84;20952710;28;20048;-73
2023/11/14 22:09:11;;;;;;;3.53;1.30;;;;;;;16.86;100.00;101402.88;20963784;28;20076;-73
2023/11/14 22:19:39;;;;;;;5.70;1.77;;;;;;;16.80;100.00;101393.97;20922820;28;20127;-73
2023/11/14 22:30:02;;;;;;;3.95;1.58;;;;;;;16.67;100.00;101375.28;20926639;28;20144;-73
2023/11/14 22:40:28;;;;;;;3.58;1.33;;;;;;;16.66;100.00;101367.28;20944130;28;20040;-73
2023/11/14 22:50:53;;;;;;;4.25;1.40;;;;;;;16.55;100.00;101355.69;20918318;28;20570;-73
2023/11/14 23:01:17;;;;;;;4.80;1.50;;;;;;;16.41;100.00;101350.34;20887598;28;20049;-73
2023/11/14 23:11:40;;;;;;;5.22;1.48;;;;;;;16.25;100.00;101344.13;20886170;28;20052;-73
2023/11/14 23:22:05;;;;;;;3.83;1.38;;;;;;;16.23;100.00;101329.00;20926136;28;20094;-73
2023/11/14 23:32:27;;;;;;;3.40;1.08;;;;;;;16.09;100.00;101326.31;20913310;28;20171;-74
2023/11/14 23:42:53;;;;;;;3.42;0.90;;;;;;;16.09;100.00;101330.75;20897493;28;20049;-73
2023/11/14 23:53:15;;;;;;;3.80;0.90;;;;;;;16.00;100.00;101331.63;20904643;28;20118;-73
